Time;durP1;ratioP1;P1;durP2;ratioP2;P2;SDS_P1;SDS_P2;PMS_P1;PMS_P2;Temp;Humidity;BMP_temperature;BMP_pressure;BME280_temperature;BME280_humidity;BME280_pressure;Samples;Min_cycle;Max_cycle;Signal;HPM_P1;HPM_P2
2022/03/23 00:02:31;;;;;;;2.53;1.60;;;5.60;80.60;;;;;;5123015;27;20196;-56
2022/03/23 00:05:18;;;;;;;3.03;2.27;;;5.50;80.70;;;;;;5125644;27;20195;-58
2022/03/23 00:08:02;;;;;;;3.60;1.80;;;5.50;80.80;;;;;;5124709;27;20238;-47
2022/03/23 00:10:48;;;;;;;1.90;1.50;;;5.40;80.70;;;;;;5123179;27;20207;-55
2022/03/23 00:13:32;;;;;;;2.87;1.57;;;5.10;80.80;;;;;;5126039;27;20183;-52
2022/03/23 00:16:16;;;;;;;6.23;1.83;;;5.20;81.20;;;;;;5117530;27;20257;-50
2022/03/23 00:19:01;;;;;;;2.87;1.70;;;5.10;80.90;;;;;;5102074;28;20215;-56
2022/03/23 00:21:46;;;;;;;4.17;1.57;;;5.00;80.80;;;;;;5104529;28;20196;-59
2022/03/23 00:24:31;;;;;;;3.10;1.83;;;4.90;80.50;;;;;;5101965;28;20219;-60
2022/03/23 00:27:16;;;;;;;11.97;2.70;;;4.80;80.70;;;;;;5102780;28;20254;-50
2022/03/23 00:30:01;;;;;;;2.00;1.87;;;4.80;80.80;;;;;;5104022;28;20195;-51
2022/03/23 00:32:45;;;;;;;2.17;1.53;;;4.70;81.20;;;;;;5100309;28;20250;-54
2022/03/23 00:35:30;;;;;;;3.23;2.00;;;4.70;81.10;;;;;;5104128;28;20246;-56
2022/03/23 00:38:17;;;;;;;2.87;1.87;;;4.50;81.70;;;;;;5103702;28;20203;-52
2022/03/23 00:41:03;;;;;;;5.40;2.40;;;4.50;81.90;;;;;;5101653;28;20585;-51
2022/03/23 00:43:48;;;;;;;1.77;1.67;;;4.50;82.10;;;;;;5105062;28;20319;-54
2022/03/23 00:46:32;;;;;;;2.50;1.93;;;4.50;82.20;;;;;;5102673;28;20242;-52
2022/03/23 00:49:17;;;;;;;1.13;1.10;;;4.40;83.70;;;;;;5102111;28;20204;-52
2022/03/23 00:52:05;;;;;;;2.17;2.07;;;4.40;83.60;;;;;;5104902;28;20204;-54
2022/03/23 00:54:49;;;;;;;2.57;1.93;;;4.40;83.60;;;;;;5102984;28;20192;-50
2022/03/23 00:57:34;;;;;;;4.23;1.33;;;4.30;83.20;;;;;;5103094;28;20195;-59
2022/03/23 01:00:20;;;;;;;1.73;1.57;;;4.20;83.30;;;;;;5104272;28;20211;-52
2022/03/23 01:03:04;;;;;;;1.60;1.50;;;4.10;83.70;;;;;;5100685;28;20192;-55
2022/03/23 01:05:50;;;;;;;2.37;2.10;;;4.10;84.20;;;;;;5103873;28;20314;-50
2022/03/23 01:08:35;;;;;;;2.50;1.80;;;4.00;84.20;;;;;;5103468;28;20207;-52
2022/03/23 01:11:19;;;;;;;3.30;1.67;;;3.90;84.40;;;;;;5100916;28;20196;-56
2022/03/23 01:14:05;;;;;;;4.60;1.90;;;3.90;85.30;;;;;;5104494;28;20274;-57
2022/03/23 01:16:52;;;;;;;1.90;1.77;;;3.90;86.10;;;;;;5102741;28;20242;-52
2022/03/23 01:19:37;;;;;;;5.53;2.47;;;3.80;87.00;;;;;;5100896;28;20196;-52
2022/03/23 01:22:22;;;;;;;3.07;2.00;;;3.80;86.70;;;;;;5104075;28;20191;-51
2022/03/23 01:25:10;;;;;;;4.67;2.03;;;3.80;86.70;;;;;;5101340;28;20265;-55
2022/03/23 01:27:56;;;;;;;4.00;2.10;;;3.80;86.80;;;;;;5102433;28;20192;-59
2022/03/23 01:30:41;;;;;;;3.43;1.53;;;3.70;86.90;;;;;;5103803;28;20204;-54
2022/03/23 01:33:26;;;;;;;2.43;1.90;;;3.70;86.70;;;;;;5100368;28;20188;-52
2022/03/23 01:36:10;;;;;;;5.00;1.93;;;3.60;87.20;;;;;;5102958;28;20262;-56
2022/03/23 01:38:56;;;;;;;3.67;2.83;;;3.50;87.50;;;;;;5103239;28;20184;-60
2022/03/23 01:41:40;;;;;;;1.77;1.67;;;3.60;88.10;;;;;;5100315;28;20239;-59
2022/03/23 01:44:26;;;;;;;4.87;2.97;;;3.50;88.50;;;;;;5103567;28;20269;-48
2022/03/23 01:47:13;;;;;;;3.03;1.83;;;3.60;89.70;;;;;;5102355;28;20196;-52
2022/03/23 01:49:58;;;;;;;4.80;1.97;;;3.50;89.90;;;;;;5100949;28;20228;-51
2022/03/23 01:52:42;;;;;;;2.40;2.20;;;3.60;89.90;;;;;;5104395;28;20271;-55
2022/03/23 01:55:26;;;;;;;1.40;1.30;;;3.50;89.80;;;;;;5101573;28;20204;-54
2022/03/23 01:58:10;;;;;;;2.13;1.50;;;3.50;89.70;;;;;;5101862;28;20227;-52
2022/03/23 02:00:55;;;;;;;3.70;2.50;;;3.50;89.60;;;;;;5106587;28;20199;-48
2022/03/23 02:03:40;;;;;;;2.23;1.87;;;3.40;89.80;;;;;;5103928;28;20223;-51
2022/03/23 02:06:25;;;;;;;2.17;2.03;;;3.30;89.70;;;;;;5106958;28;20238;-50
2022/03/23 02:09:09;;;;;;;2.53;2.00;;;3.20;89.90;;;;;;5106867;28;20199;-50
2022/03/23 02:11:54;;;;;;;2.53;1.93;;;3.20;90.20;;;;;;5104726;28;20204;-52
2022/03/23 02:14:38;;;;;;;4.43;2.60;;;3.20;90.30;;;;;;5107714;28;20257;-51
2022/03/23 02:17:22;;;;;;;2.80;2.00;;;3.20;90.40;;;;;;5106234;28;20199;-49
2022/03/23 02:20:08;;;;;;;2.27;1.87;;;3.10;90.50;;;;;;5105161;28;20199;-51
2022/03/23 02:22:52;;;;;;;2.60;2.40;;;2.90;90.80;;;;;;5107436;28;20246;-52
2022/03/23 02:25:39;;;;;;;3.87;2.90;;;2.80;91.10;;;;;;5105072;28;20231;-51
2022/03/23 02:28:23;;;;;;;2.17;1.97;;;2.90;91.00;;;;;;5105139;28;20203;-50
2022/03/23 02:31:08;;;;;;;6.70;2.70;;;2.90;91.00;;;;;;5106844;28;20209;-52
2022/03/23 02:33:53;;;;;;;2.10;1.93;;;2.90;90.90;;;;;;5103910;28;20210;-49
2022/03/23 02:36:37;;;;;;;2.67;2.10;;;2.90;90.90;;;;;;5106753;28;20268;-50
2022/03/23 02:39:22;;;;;;;6.20;3.37;;;2.80;91.00;;;;;;5106731;28;20260;-58
2022/03/23 02:42:06;;;;;;;1.90;1.77;;;2.80;91.00;;;;;;5103767;28;20242;-50
2022/03/23 02:44:50;;;;;;;3.87;1.93;;;2.70;91.10;;;;;;5107460;28;20215;-57
2022/03/23 02:47:35;;;;;;;3.50;1.83;;;2.80;91.20;;;;;;5105745;28;20241;-58
2022/03/23 02:50:19;;;;;;;7.93;2.80;;;2.60;91.40;;;;;;5105118;28;20245;-56
2022/03/23 03:02:40;;;;;;;2.13;1.97;;;2.50;91.50;;;;;;5107186;28;20297;-58
2022/03/23 03:05:24;;;;;;;2.43;2.17;;;2.50;91.70;;;;;;5106254;28;20223;-56
2022/03/23 03:11:12;;;;;;;2.87;2.67;;;2.50;92.00;;;;;;5106447;28;20200;-51
2022/03/23 03:13:57;;;;;;;2.00;1.90;;;2.50;92.10;;;;;;5106303;28;20181;-51
2022/03/23 03:16:42;;;;;;;2.43;1.90;;;2.50;92.10;;;;;;5103078;28;20200;-52
2022/03/23 03:19:26;;;;;;;4.30;2.00;;;2.50;92.20;;;;;;5106474;28;20207;-48
2022/03/23 03:22:10;;;;;;;2.73;1.83;;;2.50;92.30;;;;;;5105012;28;20248;-57
2022/03/23 03:24:55;;;;;;;1.90;1.70;;;2.40;92.30;;;;;;5103859;28;20216;-51
2022/03/23 03:27:39;;;;;;;2.53;2.30;;;2.40;92.50;;;;;;5106924;28;20277;-47
2022/03/23 03:30:24;;;;;;;2.10;1.90;;;2.30;92.50;;;;;;5104222;28;20203;-53
2022/03/23 03:33:08;;;;;;;3.77;1.77;;;2.30;92.80;;;;;;5104544;28;20200;-49
2022/03/23 03:35:52;;;;;;;3.40;2.30;;;2.30;92.60;;;;;;5106086;28;20192;-50
2022/03/23 03:38:38;;;;;;;2.20;2.00;;;2.10;92.70;;;;;;5102981;28;20193;-52
2022/03/23 03:41:22;;;;;;;2.93;2.20;;;2.20;92.80;;;;;;5105730;28;20232;-55
2022/03/23 03:44:06;;;;;;;1.40;1.27;;;2.10;92.80;;;;;;5104831;28;20224;-58
2022/03/23 03:46:50;;;;;;;8.00;2.27;;;2.20;92.80;;;;;;5103074;28;20203;-48
2022/03/23 03:49:34;;;;;;;4.10;2.73;;;2.10;93.00;;;;;;5105824;28;20265;-49
2022/03/23 03:52:18;;;;;;;4.00;2.17;;;2.10;93.10;;;;;;5104275;28;20249;-49
2022/03/23 03:55:04;;;;;;;2.07;1.87;;;2.00;93.40;;;;;;5104056;28;20262;-54
2022/03/23 03:57:48;;;;;;;4.13;3.00;;;2.00;93.60;;;;;;5106076;28;20272;-54
2022/03/23 04:00:35;;;;;;;2.03;1.93;;;1.90;93.60;;;;;;5102750;28;20195;-53
2022/03/23 04:03:20;;;;;;;3.93;2.20;;;1.90;93.70;;;;;;5103374;28;20196;-53
2022/03/23 04:06:06;;;;;;;3.07;2.77;;;2.00;93.50;;;;;;5105182;28;20200;-55
2022/03/23 04:08:50;;;;;;;2.00;1.83;;;2.00;93.50;;;;;;5102343;28;20281;-53
2022/03/23 04:11:35;;;;;;;3.27;2.13;;;2.00;93.90;;;;;;5105035;28;20214;-48
2022/03/23 04:14:19;;;;;;;5.77;2.20;;;2.00;93.70;;;;;;5104923;28;20277;-51
2022/03/23 04:17:04;;;;;;;4.70;1.37;;;1.90;93.70;;;;;;5102594;28;20203;-52
2022/03/23 04:19:48;;;;;;;1.70;1.60;;;2.00;93.50;;;;;;5105425;28;20604;-54
2022/03/23 04:22:33;;;;;;;4.90;2.23;;;1.90;93.60;;;;;;5102902;28;20196;-48
2022/03/23 04:25:18;;;;;;;4.80;2.07;;;1.90;93.60;;;;;;5103100;28;20228;-51
2022/03/23 04:28:03;;;;;;;2.30;1.90;;;1.90;93.80;;;;;;5105299;28;20280;-53
2022/03/23 04:30:48;;;;;;;1.97;1.87;;;1.90;93.70;;;;;;5102791;28;20195;-54
2022/03/23 04:33:32;;;;;;;1.90;1.80;;;1.80;93.80;;;;;;5102953;28;20188;-49
2022/03/23 04:36:17;;;;;;;2.23;1.73;;;1.70;94.20;;;;;;5103489;28;20204;-51
2022/03/23 04:39:02;;;;;;;1.40;1.40;;;1.70;94.40;;;;;;5101182;28;20257;-51
2022/03/23 04:41:46;;;;;;;2.60;1.47;;;1.60;94.80;;;;;;5104195;28;20199;-54
2022/03/23 04:44:31;;;;;;;2.20;1.73;;;1.60;94.70;;;;;;5103763;28;20239;-49
2022/03/23 04:47:15;;;;;;;4.67;2.77;;;1.60;94.90;;;;;;5101250;28;20227;-51
2022/03/23 04:50:05;;;;;;;2.77;1.70;;;1.60;94.80;;;;;;5104448;28;20188;-47
2022/03/23 04:52:52;;;;;;;9.70;4.80;;;1.50;94.90;;;;;;5103042;28;20188;-49
2022/03/23 04:55:37;;;;;;;3.17;2.17;;;1.50;95.10;;;;;;5102704;28;20295;-51
2022/03/23 04:58:22;;;;;;;2.00;1.80;;;1.70;96.70;;;;;;5104787;28;20274;-47
2022/03/23 05:01:06;;;;;;;2.30;2.10;;;1.80;96.50;;;;;;5102073;28;20184;-50
2022/03/23 05:03:52;;;;;;;1.83;1.73;;;1.70;96.20;;;;;;5102496;28;20265;-54
2022/03/23 05:06:36;;;;;;;6.17;2.60;;;1.80;96.50;;;;;;5104423;28;20184;-53
2022/03/23 05:09:20;;;;;;;2.27;2.07;;;1.70;96.00;;;;;;5100614;28;20188;-52
2022/03/23 05:12:05;;;;;;;1.77;1.63;;;1.80;96.00;;;;;;5103380;28;20279;-53
2022/03/23 05:14:49;;;;;;;2.43;2.23;;;1.80;96.60;;;;;;5103649;28;20275;-52
2022/03/23 05:17:33;;;;;;;9.33;2.60;;;1.80;96.20;;;;;;5100321;28;20273;-54
2022/03/23 05:20:18;;;;;;;7.80;2.03;;;1.90;96.20;;;;;;5103922;28;20188;-54
2022/03/23 05:23:03;;;;;;;11.23;2.63;;;1.90;96.60;;;;;;5102804;28;20234;-56
2022/03/23 05:25:47;;;;;;;9.93;3.27;;;2.10;96.80;;;;;;5101805;28;20223;-55
2022/03/23 05:28:32;;;;;;;3.13;1.80;;;2.30;96.40;;;;;;5104114;28;20184;-49
2022/03/23 05:31:16;;;;;;;2.50;1.90;;;2.30;95.90;;;;;;5101415;28;20304;-52
2022/03/23 05:34:01;;;;;;;2.63;1.67;;;2.40;95.90;;;;;;5102103;28;20279;-50
2022/03/23 05:36:46;;;;;;;2.63;2.23;;;2.20;95.10;;;;;;5106995;28;20233;-57
2022/03/23 05:39:30;;;;;;;2.17;2.07;;;2.10;95.20;;;;;;5104539;28;20254;-53
2022/03/23 05:42:15;;;;;;;2.10;1.60;;;2.00;95.60;;;;;;5107394;28;20269;-53
2022/03/23 05:44:59;;;;;;;2.20;2.00;;;2.00;95.40;;;;;;5107509;28;20284;-53
2022/03/23 05:47:43;;;;;;;3.20;2.60;;;1.80;95.30;;;;;;5105133;28;20279;-54
2022/03/23 05:50:27;;;;;;;1.77;1.67;;;1.70;95.50;;;;;;5108447;28;20283;-55
2022/03/23 05:53:12;;;;;;;2.73;2.30;;;1.70;95.60;;;;;;5106820;28;20253;-60
2022/03/23 05:55:56;;;;;;;2.20;2.03;;;1.90;95.50;;;;;;5106421;28;20195;-57
2022/03/23 05:58:40;;;;;;;3.10;2.17;;;2.00;95.20;;;;;;5108319;28;20268;-51
2022/03/23 06:01:25;;;;;;;3.53;2.40;;;1.90;95.20;;;;;;5105527;28;20249;-55
2022/03/23 06:04:09;;;;;;;2.07;1.97;;;1.90;95.40;;;;;;5106873;28;20223;-52
2022/03/23 06:06:53;;;;;;;2.77;2.50;;;2.00;95.20;;;;;;5108193;28;20246;-53
2022/03/23 06:09:38;;;;;;;2.17;1.97;;;2.10;95.10;;;;;;5105299;28;20203;-55
2022/03/23 06:12:22;;;;;;;3.23;2.53;;;2.10;95.10;;;;;;5107894;28;20262;-58
2022/03/23 06:15:08;;;;;;;2.63;2.33;;;2.10;95.10;;;;;;5106857;28;20214;-54
2022/03/23 06:17:53;;;;;;;3.97;2.00;;;2.20;95.20;;;;;;5105276;28;20195;-52
2022/03/23 06:20:37;;;;;;;3.03;2.70;;;2.40;95.60;;;;;;5106999;28;20218;-54
2022/03/23 06:23:22;;;;;;;5.13;2.63;;;2.30;95.70;;;;;;5114442;27;20268;-57
2022/03/23 06:26:07;;;;;;;3.20;2.73;;;2.40;95.80;;;;;;5131764;27;20243;-53
2022/03/23 06:28:51;;;;;;;3.03;2.57;;;2.40;95.70;;;;;;5122385;27;20211;-54
2022/03/23 06:31:36;;;;;;;4.83;2.47;;;2.50;95.50;;;;;;5125472;27;20324;-57
2022/03/23 06:34:21;;;;;;;4.03;2.03;;;2.50;95.30;;;;;;5127092;27;20188;-51
2022/03/23 06:37:05;;;;;;;4.70;2.70;;;2.60;95.30;;;;;;5129076;27;20191;-53
2022/03/23 06:39:50;;;;;;;3.03;2.83;;;2.60;95.20;;;;;;5124517;27;20231;-51
2022/03/23 06:42:34;;;;;;;3.63;2.13;;;2.70;94.90;;;;;;5128272;27;20276;-55
2022/03/23 06:45:19;;;;;;;3.40;2.70;;;2.80;94.70;;;;;;5126949;27;20268;-52
2022/03/23 06:48:04;;;;;;;2.53;2.33;;;2.80;94.60;;;;;;5123521;27;20192;-49
2022/03/23 06:50:48;;;;;;;1.77;1.67;;;2.90;94.60;;;;;;5130547;27;20217;-54
2022/03/23 06:53:33;;;;;;;2.63;2.20;;;3.00;94.40;;;;;;5139807;27;20271;-55
2022/03/23 06:56:17;;;;;;;3.23;2.93;;;3.10;94.20;;;;;;5137460;27;20271;-49
2022/03/23 06:59:04;;;;;;;2.60;2.10;;;3.10;94.20;;;;;;5135398;27;20263;-58
2022/03/23 07:01:48;;;;;;;2.77;2.53;;;3.20;94.10;;;;;;5129208;27;20292;-60
2022/03/23 07:04:33;;;;;;;3.07;2.67;;;3.30;94.00;;;;;;5135531;27;20272;-55
2022/03/23 07:07:17;;;;;;;3.80;2.70;;;3.40;93.80;;;;;;5137427;27;20183;-59
2022/03/23 07:10:06;;;;;;;5.47;2.50;;;3.40;93.60;;;;;;5133404;27;20190;-58
2022/03/23 07:12:50;;;;;;;1.87;1.77;;;3.50;93.40;;;;;;5138102;27;20195;-48
2022/03/23 07:15:36;;;;;;;2.43;2.00;;;3.50;93.20;;;;;;5134776;27;20211;-51
2022/03/23 07:18:20;;;;;;;4.13;2.43;;;3.50;92.90;;;;;;5136689;27;20234;-56
2022/03/23 07:21:05;;;;;;;2.83;2.20;;;3.60;92.90;;;;;;5134838;27;20191;-58
2022/03/23 07:23:49;;;;;;;7.00;3.00;;;3.60;92.80;;;;;;5122639;27;20253;-56
2022/03/23 07:26:33;;;;;;;2.70;2.20;;;3.70;92.50;;;;;;5121334;27;20272;-53
2022/03/23 07:29:18;;;;;;;2.80;1.97;;;3.80;92.40;;;;;;5132047;27;20278;-51
2022/03/23 07:32:03;;;;;;;4.30;2.10;;;3.90;92.20;;;;;;5137085;27;20275;-55
2022/03/23 07:34:48;;;;;;;2.63;2.43;;;4.00;91.90;;;;;;5122453;27;20191;-50
2022/03/23 07:37:32;;;;;;;4.13;2.27;;;4.10;91.90;;;;;;5127366;27;20203;-51
2022/03/23 07:40:16;;;;;;;2.07;1.70;;;4.30;91.60;;;;;;5125065;27;20235;-59
2022/03/23 07:43:01;;;;;;;2.80;1.77;;;4.40;91.20;;;;;;5133163;27;20248;-51
2022/03/23 07:45:47;;;;;;;2.73;2.33;;;4.50;91.10;;;;;;5125177;27;20287;-55
2022/03/23 07:48:32;;;;;;;3.77;1.90;;;4.70;91.00;;;;;;5127209;27;20206;-53
2022/03/23 07:51:16;;;;;;;3.50;2.73;;;4.80;90.70;;;;;;5131597;27;20188;-50
2022/03/23 07:54:00;;;;;;;2.77;2.20;;;5.00;90.30;;;;;;5121333;27;20254;-47
2022/03/23 07:56:46;;;;;;;4.13;1.70;;;5.00;90.50;;;;;;5117631;27;20209;-48
2022/03/23 07:59:32;;;;;;;2.53;2.00;;;5.10;90.50;;;;;;5115160;27;20199;-50
2022/03/23 08:02:18;;;;;;;1.87;1.77;;;5.30;90.50;;;;;;5122307;27;20273;-59
2022/03/23 08:05:03;;;;;;;2.80;1.93;;;5.50;90.20;;;;;;5124543;27;20218;-57
2022/03/23 08:07:49;;;;;;;2.40;2.17;;;5.60;90.10;;;;;;5121725;27;20211;-46
2022/03/23 08:10:34;;;;;;;3.47;2.73;;;5.80;90.20;;;;;;5123073;27;20199;-53
2022/03/23 08:13:19;;;;;;;2.07;1.93;;;6.00;90.00;;;;;;5133374;27;20249;-55
2022/03/23 08:16:05;;;;;;;2.13;1.93;;;6.20;89.50;;;;;;5126207;27;20200;-57
2022/03/23 08:18:52;;;;;;;5.23;2.80;;;6.50;88.80;;;;;;5113946;27;20191;-54
2022/03/23 08:21:36;;;;;;;2.60;2.40;;;6.80;87.70;;;;;;5137790;27;20226;-55
2022/03/23 08:24:21;;;;;;;3.43;2.47;;;7.10;86.60;;;;;;5128003;27;20223;-56
2022/03/23 08:27:05;;;;;;;4.00;2.53;;;7.40;84.80;;;;;;5119282;27;20200;-49
2022/03/23 08:29:49;;;;;;;3.67;2.53;;;8.00;84.20;;;;;;5115036;27;20283;-60
2022/03/23 08:32:34;;;;;;;2.87;2.67;;;8.70;83.20;;;;;;5127990;27;20210;-60
2022/03/23 08:35:19;;;;;;;6.53;3.40;;;9.30;80.70;;;;;;5124301;27;20196;-52
2022/03/23 08:38:05;;;;;;;5.30;3.20;;;9.50;79.30;;;;;;5119043;27;20207;-48
2022/03/23 08:40:49;;;;;;;4.70;3.03;;;9.70;77.80;;;;;;5120265;27;20279;-44
2022/03/23 08:43:34;;;;;;;3.77;2.77;;;10.20;76.10;;;;;;5126416;27;20202;-49
2022/03/23 08:46:19;;;;;;;7.53;3.30;;;10.20;75.00;;;;;;5120233;27;20261;-53
2022/03/23 08:49:05;;;;;;;2.67;2.40;;;10.00;73.70;;;;;;5126366;27;20207;-48
2022/03/23 08:51:49;;;;;;;2.77;2.50;;;9.90;72.30;;;;;;5127506;27;20195;-55
2022/03/23 08:54:35;;;;;;;5.37;3.10;;;10.20;71.00;;;;;;5126414;27;20179;-57
2022/03/23 08:57:19;;;;;;;5.10;2.50;;;10.50;71.30;;;;;;5117431;27;20188;-59
2022/03/23 09:00:06;;;;;;;2.60;2.40;;;10.80;70.00;;;;;;5126714;27;20191;-49
2022/03/23 09:02:51;;;;;;;4.93;2.90;;;10.90;68.70;;;;;;5132054;27;20291;-50
2022/03/23 09:05:35;;;;;;;2.60;2.40;;;11.10;67.80;;;;;;5123098;27;20238;-55
2022/03/23 09:08:19;;;;;;;4.17;2.07;;;11.60;65.40;;;;;;5131827;27;20194;-58
2022/03/23 09:11:04;;;;;;;4.97;2.57;;;12.20;63.40;;;;;;5122523;27;20288;-54
2022/03/23 09:13:49;;;;;;;2.67;2.27;;;12.90;62.70;;;;;;5124682;27;20340;-51
2022/03/23 09:16:34;;;;;;;4.53;2.90;;;13.40;61.30;;;;;;5113526;27;20214;-50
2022/03/23 09:19:20;;;;;;;3.27;2.70;;;13.80;61.70;;;;;;5102630;28;20195;-51
2022/03/23 09:22:05;;;;;;;7.37;2.63;;;14.50;58.20;;;;;;5139583;27;20272;-49
2022/03/23 09:24:49;;;;;;;5.87;3.20;;;14.70;57.40;;;;;;5152700;27;20254;-60
2022/03/23 09:27:34;;;;;;;5.73;3.13;;;15.10;56.60;;;;;;5116743;27;20191;-49
2022/03/23 09:30:19;;;;;;;4.33;2.97;;;15.60;54.90;;;;;;5126621;27;20192;-56
2022/03/23 09:33:03;;;;;;;6.30;2.97;;;15.40;54.80;;;;;;5124568;28;20271;-61
2022/03/23 09:35:48;;;;;;;5.27;2.80;;;15.30;53.50;;;;;;5124071;28;20378;-54
2022/03/23 09:38:32;;;;;;;6.57;4.03;;;15.00;53.50;;;;;;5124959;28;20226;-46
2022/03/23 09:41:17;;;;;;;4.00;2.93;;;15.40;53.10;;;;;;5121574;28;20234;-50
2022/03/23 09:44:02;;;;;;;5.87;2.90;;;16.00;52.30;;;;;;5124523;28;20191;-53
2022/03/23 09:46:47;;;;;;;3.20;3.00;;;16.60;52.10;;;;;;5124368;28;20187;-56
2022/03/23 09:49:31;;;;;;;4.47;2.55;;;16.70;49.70;;;;;;5121809;28;20234;-49
2022/03/23 09:52:15;;;;;;;3.00;2.30;;;17.10;49.90;;;;;;5125324;28;20183;-57
2022/03/23 09:54:59;;;;;;;2.17;1.77;;;17.50;47.60;;;;;;5123311;28;20268;-57
2022/03/23 09:57:44;;;;;;;4.15;2.28;;;16.90;47.90;;;;;;5123690;28;20280;-47
2022/03/23 10:00:40;;;;;;;4.97;2.35;;;18.00;47.10;;;;;;5125638;28;20199;-51
2022/03/23 10:03:43;;;;;;;2.40;2.17;;;18.70;45.20;;;;;;5123375;28;20273;-58
2022/03/23 10:06:39;;;;;;;4.43;2.50;;;18.70;45.20;;;;;;5123054;28;20227;-58
2022/03/23 10:09:29;;;;;;;2.78;2.58;;;18.80;45.20;;;;;;5125372;28;20241;-62
2022/03/23 10:12:51;;;;;;;2.65;2.45;;;19.20;44.20;;;;;;5123434;28;20320;-60
2022/03/23 10:16:13;;;;;;;3.17;2.88;;;19.40;44.40;;;;;;5121731;28;20440;-49
2022/03/23 10:18:59;;;;;;;2.40;2.20;;;20.50;42.30;;;;;;5123315;28;20188;-56
2022/03/23 10:21:43;;;;;;;4.18;3.00;;;20.00;42.20;;;;;;5126690;27;20276;-53
2022/03/23 10:24:30;;;;;;;2.38;2.20;;;20.20;42.60;;;;;;5125397;27;20192;-56
2022/03/23 10:27:17;;;;;;;4.82;2.38;;;20.10;43.00;;;;;;5127769;27;20241;-61
2022/03/23 10:30:02;;;;;;;2.42;2.20;;;19.50;43.30;;;;;;5127783;27;20265;-60
2022/03/23 10:32:46;;;;;;;3.55;2.72;;;18.80;44.60;;;;;;5126055;27;20312;-59
2022/03/23 10:35:38;;;;;;;3.38;2.30;;;19.50;43.70;;;;;;5128619;27;20235;-60
2022/03/23 10:38:24;;;;;;;6.50;3.13;;;20.10;43.00;;;;;;5127586;27;20192;-58
2022/03/23 10:41:11;;;;;;;3.83;2.55;;;20.70;42.10;;;;;;5125704;27;20227;-63
2022/03/23 10:43:56;;;;;;;7.45;2.90;;;22.10;40.10;;;;;;5128330;27;20191;-49
2022/03/23 10:46:41;;;;;;;2.90;2.60;;;22.80;39.40;;;;;;5126329;27;20227;-59
2022/03/23 10:49:35;;;;;;;2.47;2.25;;;23.20;38.20;;;;;;5125448;27;20208;-49
2022/03/23 10:52:20;;;;;;;2.08;1.98;;;24.50;37.80;;;;;;5127938;27;20195;-61
2022/03/23 10:55:07;;;;;;;2.95;2.33;;;24.40;36.30;;;;;;5125040;27;20277;-58
2022/03/23 10:57:51;;;;;;;2.63;2.10;;;24.50;36.20;;;;;;5126490;27;20260;-60
2022/03/23 11:00:38;;;;;;;2.58;2.10;;;23.80;36.30;;;;;;5127863;27;20221;-58
2022/03/23 11:03:48;;;;;;;3.40;1.92;;;23.30;37.20;;;;;;5125164;27;20275;-61
2022/03/23 11:06:42;;;;;;;1.92;1.67;;;24.00;35.70;;;;;;5126631;27;20591;-56
2022/03/23 11:16:01;;;;;;;2.75;2.55;;;25.70;34.50;;;;;;5126150;27;20231;-59
2022/03/23 11:18:46;;;;;;;2.83;2.03;;;26.10;32.70;;;;;;5127821;27;20191;-61
2022/03/23 11:21:31;;;;;;;1.73;1.63;;;25.40;34.20;;;;;;5126698;27;20195;-56
2022/03/23 11:24:16;;;;;;;1.58;1.48;;;24.70;33.50;;;;;;5124912;27;20203;-60
2022/03/23 11:27:01;;;;;;;1.65;1.65;;;25.60;32.70;;;;;;5127933;27;20232;-63
2022/03/23 11:29:48;;;;;;;2.45;1.50;;;25.30;32.40;;;;;;5125152;27;20271;-63
2022/03/23 11:32:37;;;;;;;1.80;1.70;;;24.60;33.60;;;;;;5122313;27;20210;-61
2022/03/23 11:35:22;;;;;;;1.88;1.77;;;25.00;32.80;;;;;;5127916;27;20228;-55
2022/03/23 11:38:11;;;;;;;1.85;1.75;;;24.30;33.30;;;;;;5115055;27;20184;-52
2022/03/23 11:40:56;;;;;;;1.75;1.65;;;24.10;33.50;;;;;;5123325;27;20247;-63
2022/03/23 11:43:41;;;;;;;1.70;1.60;;;26.00;32.20;;;;;;5125442;27;20275;-62
2022/03/23 11:46:26;;;;;;;3.60;1.60;;;24.40;32.10;;;;;;5125074;27;20223;-50
2022/03/23 11:49:35;;;;;;;1.90;1.80;;;25.50;32.60;;;;;;5126814;27;20187;-53
2022/03/23 11:52:39;;;;;;;1.63;1.42;;;26.90;31.80;;;;;;5125527;27;20263;-54
2022/03/23 11:55:37;;;;;;;1.70;1.60;;;26.40;32.30;;;;;;5122211;27;20302;-49
2022/03/23 11:58:34;;;;;;;3.00;1.60;;;27.50;32.10;;;;;;5120649;27;20200;-57
2022/03/23 12:01:19;;;;;;;1.42;1.35;;;28.90;31.40;;;;;;5120688;27;20195;-62
2022/03/23 12:04:04;;;;;;;1.95;1.58;;;27.10;32.00;;;;;;5122138;27;20192;-55
2022/03/23 12:07:08;;;;;;;1.58;1.55;;;26.30;32.30;;;;;;5124650;27;20227;-50
2022/03/23 12:10:13;;;;;;;1.58;1.48;;;27.70;32.00;;;;;;5108001;27;20188;-57
2022/03/23 12:13:15;;;;;;;1.85;1.75;;;28.20;31.50;;;;;;5103815;28;20214;-60
2022/03/23 12:16:01;;;;;;;1.80;1.70;;;28.70;30.80;;;;;;5103586;28;20289;-60
2022/03/23 12:19:37;;;;;;;1.60;1.60;;;28.80;30.70;;;;;;5113969;27;20222;-58
2022/03/23 12:22:33;;;;;;;2.10;1.90;;;28.80;30.50;;;;;;5125926;27;20195;-59
2022/03/23 12:25:36;;;;;;;2.40;2.20;;;28.10;31.10;;;;;;5131293;27;20234;-62
2022/03/23 12:28:31;;;;;;;1.50;1.48;;;28.30;31.20;;;;;;5130736;27;20265;-62
2022/03/23 12:31:16;;;;;;;1.90;1.80;;;28.70;30.70;;;;;;5129196;27;20252;-62
2022/03/23 12:34:06;;;;;;;1.80;1.70;;;27.30;31.00;;;;;;5144160;27;20191;-58
2022/03/23 12:36:59;;;;;;;1.70;1.60;;;27.80;31.10;;;;;;5143067;27;20213;-53
2022/03/23 12:39:51;;;;;;;2.20;1.80;;;25.50;32.60;;;;;;5108215;27;20220;-53
2022/03/23 12:42:44;;;;;;;1.83;1.70;;;22.80;35.00;;;;;;5102632;28;20196;-52
2022/03/23 12:45:33;;;;;;;1.70;1.58;;;21.80;36.10;;;;;;5104551;28;20246;-53
2022/03/23 12:57:50;;;;;;;1.83;1.73;;;19.50;38.30;;;;;;5142129;27;20191;-49
2022/03/23 13:00:42;;;;;;;2.78;2.30;;;19.00;39.30;;;;;;5139849;27;20206;-59
2022/03/23 13:03:47;;;;;;;2.93;1.73;;;18.70;40.60;;;;;;5130277;27;20226;-53
2022/03/23 13:06:37;;;;;;;1.47;1.37;;;18.80;40.30;;;;;;5130411;27;20191;-50
2022/03/23 13:09:25;;;;;;;2.35;1.50;;;20.20;40.30;;;;;;5101990;28;20197;-58
2022/03/23 13:12:10;;;;;;;3.60;1.77;;;22.20;37.50;;;;;;5132087;27;20189;-52
2022/03/23 13:14:54;;;;;;;1.70;1.60;;;23.00;35.50;;;;;;5134747;27;20287;-50
2022/03/23 13:17:46;;;;;;;1.90;1.80;;;25.80;33.90;;;;;;5131870;27;20238;-56
2022/03/23 13:20:31;;;;;;;3.17;2.10;;;27.20;32.70;;;;;;5103290;28;20192;-47
2022/03/23 13:23:17;;;;;;;1.92;1.83;;;27.60;32.40;;;;;;5133991;27;20245;-53
2022/03/23 13:26:24;;;;;;;3.50;1.60;;;29.90;31.00;;;;;;5102168;28;20192;-52
2022/03/23 13:29:11;;;;;;;1.75;1.63;;;27.60;31.00;;;;;;5102704;28;20211;-50
2022/03/23 13:32:04;;;;;;;1.40;1.40;;;24.80;33.60;;;;;;5104948;28;20195;-57
2022/03/23 13:34:58;;;;;;;1.90;1.80;;;23.80;34.70;;;;;;5103163;28;20223;-53
2022/03/23 13:37:59;;;;;;;3.47;1.65;;;22.60;35.80;;;;;;5132130;27;20253;-53
2022/03/23 13:43:51;;;;;;;2.17;1.52;;;24.70;34.00;;;;;;5104364;28;20191;-51
2022/03/23 13:46:36;;;;;;;1.70;1.63;;;26.20;33.00;;;;;;5131490;27;20200;-51
2022/03/23 13:49:20;;;;;;;1.55;1.45;;;26.70;31.50;;;;;;5133721;27;20211;-51
2022/03/23 13:52:05;;;;;;;3.83;1.70;;;28.10;31.50;;;;;;5130935;27;20187;-50
2022/03/23 13:54:49;;;;;;;1.27;1.27;;;31.00;30.20;;;;;;5132015;27;20279;-57
2022/03/23 13:57:36;;;;;;;1.60;1.50;;;30.90;29.60;;;;;;5137542;27;20204;-46
2022/03/23 14:00:23;;;;;;;3.10;1.65;;;31.60;29.00;;;;;;5105032;28;20211;-50
2022/03/23 14:03:07;;;;;;;1.20;1.20;;;30.90;29.40;;;;;;5108984;28;20200;-52
2022/03/23 14:06:15;;;;;;;1.70;1.70;;;31.70;29.20;;;;;;5137318;27;20200;-49
2022/03/23 14:08:59;;;;;;;1.98;1.40;;;33.10;28.30;;;;;;5105478;28;20253;-50
2022/03/23 14:11:50;;;;;;;4.20;1.40;;;33.40;27.60;;;;;;5136936;27;20188;-58
2022/03/23 14:14:36;;;;;;;2.30;1.27;;;32.50;27.60;;;;;;5137760;27;20305;-54
2022/03/23 14:17:26;;;;;;;1.45;1.45;;;33.10;28.10;;;;;;5105208;28;20195;-51
2022/03/23 14:20:12;;;;;;;1.13;1.10;;;34.00;28.20;;;;;;5108750;28;20195;-53
2022/03/23 14:22:57;;;;;;;1.30;1.30;;;33.40;27.50;;;;;;5136997;27;20656;-53
2022/03/23 14:25:42;;;;;;;2.40;1.70;;;33.20;27.50;;;;;;5135473;27;20215;-52
2022/03/23 14:28:26;;;;;;;1.60;1.50;;;33.70;27.30;;;;;;5137518;27;20235;-57
2022/03/23 14:31:10;;;;;;;1.30;1.30;;;33.90;27.80;;;;;;5135224;27;20295;-57
2022/03/23 14:34:05;;;;;;;1.30;1.30;;;34.70;27.10;;;;;;5136020;27;20206;-50
2022/03/23 14:37:06;;;;;;;1.38;1.30;;;34.40;27.20;;;;;;5108014;28;20191;-58
2022/03/23 14:39:50;;;;;;;1.95;1.40;;;33.50;27.00;;;;;;5105760;28;20227;-61
2022/03/23 14:42:34;;;;;;;4.70;1.50;;;33.90;26.60;;;;;;5134937;27;20316;-56
2022/03/23 14:45:43;;;;;;;1.02;1.02;;;34.30;26.30;;;;;;5137180;27;20207;-56
2022/03/23 14:48:32;;;;;;;1.70;1.20;;;34.80;26.50;;;;;;5105965;28;20240;-55
2022/03/23 14:51:16;;;;;;;1.23;1.23;;;35.70;25.80;;;;;;5105233;28;20187;-52
2022/03/23 14:54:09;;;;;;;1.15;0.93;;;35.10;26.10;;;;;;5137354;27;20227;-60
2022/03/23 14:56:53;;;;;;;1.42;1.33;;;33.90;25.90;;;;;;5105761;28;20187;-51
2022/03/23 14:59:47;;;;;;;2.13;0.98;;;34.70;25.90;;;;;;5135856;27;20210;-48
2022/03/23 15:02:36;;;;;;;0.68;0.68;;;35.10;24.70;;;;;;5107777;28;20195;-51
2022/03/23 15:14:30;;;;;;;1.13;0.90;;;34.90;24.80;;;;;;5107673;28;20234;-52
2022/03/23 15:17:14;;;;;;;0.82;0.82;;;35.20;25.30;;;;;;5134059;27;20336;-52